createdAt,value
2019-01-15T00:00:19.553Z,6.08
2019-01-15T00:00:45.668Z,6.09
2019-01-15T00:01:11.774Z,6.05
2019-01-15T00:01:37.987Z,6.02
2019-01-15T00:02:04.094Z,6.02
2019-01-15T00:02:30.203Z,6.01
2019-01-15T00:02:56.329Z,6.04
2019-01-15T00:03:22.440Z,6.07
2019-01-15T00:03:48.553Z,6.08
2019-01-15T00:04:14.657Z,6.04
2019-01-15T00:04:40.812Z,6.01
2019-01-15T00:05:06.906Z,6.02
2019-01-15T00:05:33.144Z,6.04
2019-01-15T00:05:59.239Z,6.08
2019-01-15T00:06:25.348Z,6.01
2019-01-15T00:06:51.451Z,6.01
2019-01-15T00:07:17.571Z,5.99
2019-01-15T00:07:43.704Z,5.98
2019-01-15T00:08:09.791Z,6.02
2019-01-15T00:08:35.904Z,6.04
2019-01-15T00:09:02.027Z,5.98
2019-01-15T00:09:28.142Z,6.02
2019-01-15T00:09:54.501Z,5.99
2019-01-15T00:10:20.602Z,5.99
2019-01-15T00:10:46.764Z,5.97
2019-01-15T00:11:12.871Z,5.98
2019-01-15T00:11:39.241Z,6.02
2019-01-15T00:12:07.875Z,5.97
2019-01-15T00:12:32.483Z,5.99
2019-01-15T00:12:58.696Z,6.05
2019-01-15T00:13:24.839Z,5.94
2019-01-15T00:13:50.963Z,6.01
2019-01-15T00:14:17.082Z,5.89
2019-01-15T00:14:43.220Z,5.97
2019-01-15T00:15:09.349Z,5.83
2019-01-15T00:15:35.502Z,5.84
2019-01-15T00:16:01.621Z,5.9
2019-01-15T00:16:27.725Z,5.87
2019-01-15T00:16:56.988Z,5.89
2019-01-15T00:17:23.082Z,5.9
2019-01-15T00:17:49.244Z,5.83
2019-01-15T00:18:15.411Z,5.93
2019-01-15T00:18:41.618Z,5.87
2019-01-15T00:19:08.029Z,5.89
2019-01-15T00:19:34.264Z,5.84
2019-01-15T00:20:00.605Z,5.83
2019-01-15T00:20:26.792Z,5.83
2019-01-15T00:20:52.946Z,5.84
2019-01-15T00:21:19.045Z,5.89
2019-01-15T00:21:45.166Z,5.89
2019-01-15T00:22:11.267Z,5.87
2019-01-15T00:22:37.380Z,5.93
2019-01-15T00:23:03.653Z,5.93
2019-01-15T00:23:30.741Z,5.98
2019-01-15T00:23:56.892Z,5.94
2019-01-15T00:24:23.039Z,5.91
2019-01-15T00:24:49.402Z,5.9
2019-01-15T00:25:15.628Z,5.94
2019-01-15T00:25:41.854Z,5.98
2019-01-15T00:26:07.998Z,5.91
2019-01-15T00:26:34.126Z,5.9
2019-01-15T00:27:00.294Z,5.89
2019-01-15T00:27:26.405Z,5.99
2019-01-15T00:27:52.535Z,5.93
2019-01-15T00:28:18.644Z,5.87
2019-01-15T00:28:44.756Z,5.9
2019-01-15T00:29:10.859Z,5.76
2019-01-15T00:29:36.967Z,5.87
2019-01-15T00:30:03.072Z,5.83
2019-01-15T00:30:29.181Z,5.8
2019-01-15T00:30:55.282Z,5.83
2019-01-15T00:31:21.409Z,5.75
2019-01-15T00:31:47.513Z,5.79
2019-01-15T00:32:13.618Z,5.86
2019-01-15T00:32:39.751Z,5.87
2019-01-15T00:33:05.852Z,5.84
2019-01-15T00:33:31.969Z,5.86
2019-01-15T00:33:58.079Z,5.87
2019-01-15T00:34:24.287Z,5.79
2019-01-15T00:34:50.392Z,5.8
2019-01-15T00:35:16.490Z,5.8
2019-01-15T00:35:42.683Z,5.79
2019-01-15T00:36:08.788Z,5.89
2019-01-15T00:36:34.947Z,5.8
2019-01-15T00:37:02.059Z,5.8
2019-01-15T00:37:28.272Z,5.82
2019-01-15T00:37:54.374Z,5.76
2019-01-15T00:38:20.513Z,5.72
2019-01-15T00:38:46.625Z,5.76
2019-01-15T00:39:12.727Z,5.8
2019-01-15T00:39:38.833Z,5.82
2019-01-15T00:40:04.938Z,5.82
2019-01-15T00:40:31.079Z,5.79
2019-01-15T00:40:57.178Z,5.68
2019-01-15T00:41:23.286Z,5.69
2019-01-15T00:41:49.389Z,5.76
2019-01-15T00:42:16.486Z,5.73
2019-01-15T00:42:42.630Z,5.68
2019-01-15T00:43:08.733Z,5.64
2019-01-15T00:43:34.864Z,5.66
2019-01-15T00:44:00.971Z,5.73
2019-01-15T00:44:27.103Z,5.69
2019-01-15T00:44:53.206Z,5.69
2019-01-15T00:45:19.320Z,5.72
2019-01-15T00:45:45.453Z,5.69
2019-01-15T00:46:11.578Z,5.68
2019-01-15T00:46:37.687Z,5.69
2019-01-15T00:47:03.794Z,5.62
2019-01-15T00:47:29.887Z,5.71
2019-01-15T00:47:55.993Z,5.73
2019-01-15T00:48:22.094Z,5.66
2019-01-15T00:48:48.194Z,5.71
2019-01-15T00:49:14.304Z,5.73
2019-01-15T00:49:40.406Z,5.75
2019-01-15T00:50:06.511Z,5.72
2019-01-15T00:50:32.636Z,5.82
2019-01-15T00:50:58.748Z,5.73
2019-01-15T00:51:24.858Z,5.75
2019-01-15T00:51:50.958Z,5.71
2019-01-15T00:52:17.059Z,5.69
2019-01-15T00:52:43.158Z,5.68
2019-01-15T00:53:09.264Z,5.66
2019-01-15T00:53:35.392Z,5.61
2019-01-15T00:54:01.480Z,5.68
2019-01-15T00:54:27.567Z,5.66
2019-01-15T00:54:53.679Z,5.66
2019-01-15T00:55:19.801Z,5.64
2019-01-15T00:55:45.904Z,5.64
2019-01-15T00:56:12.008Z,5.69
2019-01-15T00:56:38.114Z,5.61
2019-01-15T00:57:04.220Z,5.64
2019-01-15T00:57:30.331Z,5.69
2019-01-15T00:57:56.434Z,5.65
2019-01-15T00:58:22.541Z,5.69
2019-01-15T00:58:48.671Z,5.68
2019-01-15T00:59:14.780Z,5.71
2019-01-15T00:59:40.883Z,5.73
2019-01-15T01:00:06.987Z,5.62
2019-01-15T01:00:33.127Z,5.68
2019-01-15T01:00:59.230Z,5.64
2019-01-15T01:01:25.330Z,5.62
2019-01-15T01:01:51.434Z,5.62
2019-01-15T01:02:17.545Z,5.65
2019-01-15T01:02:43.648Z,5.66
2019-01-15T01:03:09.754Z,5.61
2019-01-15T01:03:35.858Z,5.68
2019-01-15T01:04:01.969Z,5.71
2019-01-15T01:04:28.065Z,5.68
2019-01-15T01:04:54.172Z,5.62
2019-01-15T01:05:20.280Z,5.68
2019-01-15T01:05:46.416Z,5.65
2019-01-15T01:06:12.517Z,5.71
2019-01-15T01:06:38.648Z,5.68
2019-01-15T01:07:04.756Z,5.61
2019-01-15T01:07:30.860Z,5.66
2019-01-15T01:07:56.965Z,5.65
2019-01-15T01:08:23.088Z,5.65
2019-01-15T01:08:49.199Z,5.64
2019-01-15T01:09:15.307Z,5.68
2019-01-15T01:09:41.410Z,5.79
2019-01-15T01:10:07.547Z,5.68
2019-01-15T01:10:33.675Z,5.69
2019-01-15T01:10:59.815Z,5.66
2019-01-15T01:11:25.917Z,5.75
2019-01-15T01:11:52.029Z,5.69
2019-01-15T01:12:22.116Z,5.68
2019-01-15T01:12:45.235Z,5.71
2019-01-15T01:13:11.372Z,5.69
2019-01-15T01:13:37.441Z,5.69
2019-01-15T01:14:03.552Z,5.75
2019-01-15T01:14:29.653Z,5.72
2019-01-15T01:14:55.759Z,5.71
2019-01-15T01:15:21.861Z,5.72
2019-01-15T01:15:47.972Z,5.71
2019-01-15T01:16:14.079Z,5.71
2019-01-15T01:16:40.191Z,5.69
2019-01-15T01:17:06.296Z,5.73
2019-01-15T01:17:32.457Z,5.69
2019-01-15T01:17:58.561Z,5.71
2019-01-15T01:18:24.667Z,5.79
2019-01-15T01:18:50.768Z,5.68
2019-01-15T01:19:16.873Z,5.79
2019-01-15T01:19:42.973Z,5.72
2019-01-15T01:20:09.080Z,5.71
2019-01-15T01:20:35.184Z,5.68
2019-01-15T01:21:01.290Z,5.76
2019-01-15T01:21:27.422Z,5.69
2019-01-15T01:21:53.528Z,5.69
2019-01-15T01:22:19.625Z,5.66
2019-01-15T01:22:45.730Z,5.73
2019-01-15T01:23:11.832Z,5.73
2019-01-15T01:23:37.937Z,5.72
2019-01-15T01:24:04.042Z,5.71
2019-01-15T01:24:30.143Z,5.75
2019-01-15T01:24:56.284Z,5.76
2019-01-15T01:25:22.386Z,5.79
2019-01-15T01:25:48.496Z,5.76
2019-01-15T01:26:14.592Z,5.69
2019-01-15T01:26:40.705Z,5.69
2019-01-15T01:27:06.806Z,5.76
2019-01-15T01:27:32.906Z,5.73
2019-01-15T01:27:59.008Z,5.79
2019-01-15T01:28:25.164Z,5.75
2019-01-15T01:28:51.275Z,5.8
2019-01-15T01:29:17.407Z,5.8
2019-01-15T01:29:43.510Z,5.8
2019-01-15T01:30:09.613Z,5.76
2019-01-15T01:30:35.718Z,5.8
2019-01-15T01:31:01.827Z,5.75
2019-01-15T01:31:27.923Z,5.79
2019-01-15T01:31:54.028Z,5.8
2019-01-15T01:32:20.128Z,5.73
2019-01-15T01:32:46.238Z,5.79
2019-01-15T01:33:12.339Z,5.79
2019-01-15T01:33:38.443Z,5.73
2019-01-15T01:34:04.553Z,5.8
2019-01-15T01:34:30.686Z,5.82
2019-01-15T01:34:56.791Z,5.76
2019-01-15T01:35:22.899Z,5.82
2019-01-15T01:35:49.026Z,5.82
2019-01-15T01:36:15.136Z,5.82
2019-01-15T01:36:41.270Z,5.84
2019-01-15T01:37:07.483Z,5.84
2019-01-15T01:37:33.548Z,5.84
2019-01-15T01:37:59.652Z,5.76
2019-01-15T01:38:25.759Z,5.75
2019-01-15T01:38:51.865Z,5.79
2019-01-15T01:39:17.965Z,5.79
2019-01-15T01:39:44.075Z,5.73
2019-01-15T01:40:10.181Z,5.76
2019-01-15T01:40:36.337Z,5.76
2019-01-15T01:41:02.475Z,5.83
2019-01-15T01:41:28.616Z,5.79
2019-01-15T01:41:54.716Z,5.8
2019-01-15T01:42:20.825Z,5.75
2019-01-15T01:42:47.925Z,5.8
2019-01-15T01:43:14.026Z,5.79
2019-01-15T01:43:40.139Z,5.79
2019-01-15T01:44:06.239Z,5.72
2019-01-15T01:44:32.344Z,5.71
2019-01-15T01:44:58.481Z,5.79
2019-01-15T01:45:24.584Z,5.75
2019-01-15T01:45:50.697Z,5.66
2019-01-15T01:46:16.823Z,5.65
2019-01-15T01:46:42.964Z,5.69
2019-01-15T01:47:09.124Z,5.79
2019-01-15T01:47:35.233Z,5.68
2019-01-15T01:48:01.355Z,5.71
2019-01-15T01:48:27.460Z,5.64
2019-01-15T01:48:53.570Z,5.69
2019-01-15T01:49:19.674Z,5.73
2019-01-15T01:49:45.773Z,5.71
2019-01-15T01:50:11.904Z,5.68
2019-01-15T01:50:38.133Z,5.68
2019-01-15T01:51:04.235Z,5.69
2019-01-15T01:51:30.339Z,5.79
2019-01-15T01:51:56.468Z,5.69
2019-01-15T01:52:22.568Z,5.69
2019-01-15T01:52:48.677Z,5.72
2019-01-15T01:53:14.789Z,5.69
2019-01-15T01:53:40.912Z,5.68
2019-01-15T01:54:07.012Z,5.69
2019-01-15T01:54:33.613Z,5.69
2019-01-15T01:54:59.720Z,5.69
2019-01-15T01:55:25.820Z,5.68
2019-01-15T01:55:51.924Z,5.62
2019-01-15T01:56:18.026Z,5.68
2019-01-15T01:56:44.133Z,5.73
2019-01-15T01:57:10.231Z,5.73
2019-01-15T01:57:36.334Z,5.73
2019-01-15T01:58:02.440Z,5.79
2019-01-15T01:58:28.545Z,5.66
2019-01-15T01:58:54.658Z,5.68
2019-01-15T01:59:20.757Z,5.76
2019-01-15T01:59:46.866Z,5.73
2019-01-15T02:00:12.994Z,5.79
2019-01-15T02:00:39.093Z,5.76
2019-01-15T02:01:05.200Z,5.83
2019-01-15T02:01:31.307Z,5.76
2019-01-15T02:01:57.414Z,5.71
2019-01-15T02:02:23.519Z,5.73
2019-01-15T02:02:49.650Z,5.71
2019-01-15T02:03:15.756Z,5.82
2019-01-15T02:03:41.856Z,5.76
2019-01-15T02:04:07.959Z,5.79
2019-01-15T02:04:34.069Z,5.69
2019-01-15T02:05:00.184Z,5.75
2019-01-15T02:05:26.276Z,5.79
2019-01-15T02:05:52.399Z,5.72
2019-01-15T02:06:18.481Z,5.71
2019-01-15T02:06:44.608Z,5.76
2019-01-15T02:07:10.717Z,5.75
2019-01-15T02:07:36.829Z,5.73
2019-01-15T02:08:02.923Z,5.65
2019-01-15T02:08:29.037Z,5.68
2019-01-15T02:08:55.141Z,5.66
2019-01-15T02:09:21.244Z,5.72
2019-01-15T02:09:47.383Z,5.72
2019-01-15T02:10:13.486Z,5.71
2019-01-15T02:10:39.588Z,5.69
2019-01-15T02:11:05.691Z,5.72
2019-01-15T02:11:31.833Z,5.69
2019-01-15T02:11:57.942Z,5.76
2019-01-15T02:12:24.079Z,5.72
2019-01-15T02:12:51.191Z,5.75
2019-01-15T02:13:17.298Z,5.8
2019-01-15T02:13:44.769Z,5.76
2019-01-15T02:14:10.496Z,5.82
2019-01-15T02:14:36.597Z,5.79
2019-01-15T02:15:02.708Z,5.76
2019-01-15T02:15:28.812Z,5.79
2019-01-15T02:15:54.917Z,5.79
2019-01-15T02:16:21.017Z,5.64
2019-01-15T02:16:47.123Z,5.68
2019-01-15T02:17:13.230Z,5.71
2019-01-15T02:17:39.333Z,5.73
2019-01-15T02:18:05.434Z,5.65
2019-01-15T02:18:31.568Z,5.76
2019-01-15T02:18:57.671Z,5.71
2019-01-15T02:19:23.777Z,5.68
2019-01-15T02:19:49.872Z,5.84
2019-01-15T02:20:15.975Z,5.72
2019-01-15T02:20:42.079Z,5.76
2019-01-15T02:21:08.187Z,5.72
2019-01-15T02:21:34.315Z,5.71
2019-01-15T02:22:00.421Z,5.65
2019-01-15T02:22:26.522Z,5.72
2019-01-15T02:22:52.629Z,5.69
2019-01-15T02:23:18.737Z,5.72
2019-01-15T02:23:44.844Z,5.76
2019-01-15T02:24:10.980Z,5.68
2019-01-15T02:24:37.089Z,5.73
2019-01-15T02:25:03.230Z,5.79
2019-01-15T02:25:29.385Z,5.76
2019-01-15T02:25:55.490Z,5.71
2019-01-15T02:26:21.591Z,5.66
2019-01-15T02:26:47.705Z,5.62
2019-01-15T02:27:13.805Z,5.69
2019-01-15T02:27:39.919Z,5.71
2019-01-15T02:28:06.013Z,5.69
2019-01-15T02:28:32.117Z,5.72
2019-01-15T02:28:58.217Z,5.71
2019-01-15T02:29:24.328Z,5.66
2019-01-15T02:29:50.429Z,5.66
2019-01-15T02:30:16.538Z,5.68
2019-01-15T02:30:42.669Z,5.66
2019-01-15T02:31:08.777Z,5.69
2019-01-15T02:31:34.912Z,5.68
2019-01-15T02:32:01.016Z,5.72
2019-01-15T02:32:27.120Z,5.79
2019-01-15T02:32:53.255Z,5.75
2019-01-15T02:33:19.358Z,5.79
2019-01-15T02:33:45.463Z,5.72
2019-01-15T02:34:11.570Z,5.68
2019-01-15T02:34:37.695Z,5.72
2019-01-15T02:35:03.820Z,5.8
2019-01-15T02:35:29.922Z,5.68
2019-01-15T02:35:56.070Z,5.73
2019-01-15T02:36:22.170Z,5.71
2019-01-15T02:36:48.275Z,5.71
2019-01-15T02:37:14.386Z,5.66
2019-01-15T02:37:40.504Z,5.64
2019-01-15T02:38:06.622Z,5.71
2019-01-15T02:38:32.719Z,5.69
2019-01-15T02:38:58.828Z,5.71
2019-01-15T02:39:24.935Z,5.75
2019-01-15T02:39:51.035Z,5.64
2019-01-15T02:40:17.172Z,5.69
2019-01-15T02:40:43.308Z,5.66
2019-01-15T02:41:09.413Z,5.65
2019-01-15T02:41:35.538Z,5.66
2019-01-15T02:42:01.647Z,5.65
2019-01-15T02:42:27.745Z,5.66
2019-01-15T02:42:55.857Z,5.66
2019-01-15T02:43:21.964Z,5.65
2019-01-15T02:43:48.072Z,5.71
2019-01-15T02:44:14.245Z,5.69
2019-01-15T02:44:40.371Z,5.71
2019-01-15T02:45:06.505Z,5.73
2019-01-15T02:45:32.611Z,5.68
2019-01-15T02:45:58.748Z,5.71
2019-01-15T02:46:24.880Z,5.62
2019-01-15T02:46:50.990Z,5.72
2019-01-15T02:47:17.092Z,5.64
2019-01-15T02:47:43.234Z,5.71
2019-01-15T02:48:09.358Z,5.66
2019-01-15T02:48:35.465Z,5.68
2019-01-15T02:49:01.585Z,5.72
2019-01-15T02:49:27.722Z,5.75
2019-01-15T02:49:53.829Z,5.69
2019-01-15T02:50:19.969Z,5.72
2019-01-15T02:50:46.074Z,5.73
2019-01-15T02:51:12.179Z,5.8
2019-01-15T02:51:38.276Z,5.73
2019-01-15T02:52:04.408Z,5.64
2019-01-15T02:52:30.516Z,5.64
2019-01-15T02:52:56.647Z,5.66
2019-01-15T02:53:22.749Z,5.66
2019-01-15T02:53:48.884Z,5.71
2019-01-15T02:54:14.988Z,5.68
2019-01-15T02:54:41.089Z,5.64
2019-01-15T02:55:07.197Z,5.68
2019-01-15T02:55:33.299Z,5.66
2019-01-15T02:55:59.436Z,5.69
2019-01-15T02:56:25.572Z,5.73
2019-01-15T02:56:51.700Z,5.66
2019-01-15T02:57:17.836Z,5.68
2019-01-15T02:57:43.935Z,5.69
2019-01-15T02:58:10.091Z,5.61
2019-01-15T02:58:36.197Z,5.68
2019-01-15T02:59:02.326Z,5.69
2019-01-15T02:59:28.466Z,5.66
2019-01-15T02:59:54.565Z,5.69
2019-01-15T03:00:20.671Z,5.65
2019-01-15T03:00:46.770Z,5.71
2019-01-15T03:01:12.878Z,5.71
2019-01-15T03:01:38.988Z,5.72
2019-01-15T03:02:05.121Z,5.64
2019-01-15T03:02:31.223Z,5.66
2019-01-15T03:02:57.360Z,5.62
2019-01-15T03:03:23.460Z,5.68
2019-01-15T03:03:49.566Z,5.72
2019-01-15T03:04:15.673Z,5.69
2019-01-15T03:04:41.809Z,5.71
2019-01-15T03:05:07.945Z,5.65
2019-01-15T03:05:34.046Z,5.66
2019-01-15T03:06:00.212Z,5.68
2019-01-15T03:06:26.320Z,5.66
2019-01-15T03:06:52.428Z,5.64
2019-01-15T03:07:18.535Z,5.64
2019-01-15T03:07:44.635Z,5.64
2019-01-15T03:08:10.739Z,5.59
2019-01-15T03:08:36.839Z,5.57
2019-01-15T03:09:02.971Z,5.57
2019-01-15T03:09:29.094Z,5.57
2019-01-15T03:09:55.199Z,5.56
2019-01-15T03:10:21.300Z,5.57
2019-01-15T03:10:47.412Z,5.59
2019-01-15T03:11:13.521Z,5.59
2019-01-15T03:11:39.625Z,5.51
2019-01-15T03:12:05.725Z,5.54
2019-01-15T03:12:31.831Z,5.51
2019-01-15T03:12:59.909Z,5.5
2019-01-15T03:13:26.017Z,5.41
2019-01-15T03:13:52.125Z,5.46
2019-01-15T03:14:18.225Z,5.41
2019-01-15T03:14:44.323Z,5.35
2019-01-15T03:15:10.429Z,5.43
2019-01-15T03:15:36.529Z,5.54
2019-01-15T03:16:02.635Z,5.35
2019-01-15T03:16:28.748Z,5.5
2019-01-15T03:16:54.848Z,5.43
2019-01-15T03:17:20.953Z,5.5
2019-01-15T03:17:47.087Z,5.57
2019-01-15T03:18:13.218Z,5.54
2019-01-15T03:18:39.350Z,5.54
2019-01-15T03:19:05.454Z,5.54
2019-01-15T03:19:31.561Z,5.56
2019-01-15T03:19:57.669Z,5.48
2019-01-15T03:20:23.775Z,5.44
2019-01-15T03:20:49.866Z,5.47
2019-01-15T03:21:16.027Z,5.53
2019-01-15T03:21:42.182Z,5.53
2019-01-15T03:22:08.322Z,5.48
2019-01-15T03:22:34.430Z,5.53
2019-01-15T03:23:00.533Z,5.56
2019-01-15T03:23:26.666Z,5.47
2019-01-15T03:23:52.831Z,5.5
2019-01-15T03:24:18.928Z,5.47
2019-01-15T03:24:45.070Z,5.5
2019-01-15T03:25:11.171Z,5.46
2019-01-15T03:25:37.310Z,5.51
2019-01-15T03:26:03.448Z,5.54
2019-01-15T03:26:29.579Z,5.53
2019-01-15T03:26:55.730Z,5.57
2019-01-15T03:27:21.866Z,5.56
2019-01-15T03:27:47.999Z,5.57
2019-01-15T03:28:14.127Z,5.54
2019-01-15T03:28:40.265Z,5.51
2019-01-15T03:29:06.398Z,5.53
2019-01-15T03:29:32.497Z,5.51
2019-01-15T03:29:58.603Z,5.48
2019-01-15T03:30:24.774Z,5.53
2019-01-15T03:30:50.869Z,5.39
2019-01-15T03:31:17.070Z,5.36
2019-01-15T03:31:43.167Z,5.33
2019-01-15T03:32:09.312Z,5.39
2019-01-15T03:32:35.492Z,5.46
2019-01-15T03:33:01.683Z,5.35
2019-01-15T03:33:27.871Z,5.36
2019-01-15T03:33:53.982Z,5.43
2019-01-15T03:34:20.085Z,5.33
2019-01-15T03:34:46.187Z,5.33
2019-01-15T03:35:12.349Z,5.38
2019-01-15T03:35:38.486Z,5.44
2019-01-15T03:36:04.622Z,5.51
2019-01-15T03:36:30.749Z,5.59
2019-01-15T03:36:57.875Z,5.43
2019-01-15T03:37:24.005Z,5.48
2019-01-15T03:37:50.110Z,5.5
2019-01-15T03:38:16.239Z,5.51
2019-01-15T03:38:42.347Z,5.54
2019-01-15T03:39:08.445Z,5.59
2019-01-15T03:39:34.608Z,5.57
2019-01-15T03:40:00.767Z,5.56
2019-01-15T03:40:26.853Z,5.53
2019-01-15T03:40:52.956Z,5.53
2019-01-15T03:41:19.057Z,5.53
2019-01-15T03:41:45.174Z,5.54
2019-01-15T03:42:11.266Z,5.59
2019-01-15T03:42:37.373Z,5.64
2019-01-15T03:43:04.193Z,5.62
2019-01-15T03:43:29.651Z,5.62
2019-01-15T03:43:55.758Z,5.62
2019-01-15T03:44:21.882Z,5.61
2019-01-15T03:44:47.997Z,5.59
2019-01-15T03:45:15.093Z,5.54
2019-01-15T03:45:41.201Z,5.56
2019-01-15T03:46:09.287Z,5.54
2019-01-15T03:46:35.424Z,5.54
2019-01-15T03:47:01.526Z,5.51
2019-01-15T03:47:27.627Z,5.54
2019-01-15T03:47:53.729Z,5.59
2019-01-15T03:48:19.834Z,5.53
2019-01-15T03:48:45.966Z,5.56
2019-01-15T03:49:12.070Z,5.54
2019-01-15T03:49:38.174Z,5.53
2019-01-15T03:50:04.308Z,5.53
2019-01-15T03:50:30.419Z,5.64
2019-01-15T03:50:56.556Z,5.62
2019-01-15T03:51:22.691Z,5.65
2019-01-15T03:51:48.797Z,5.68
2019-01-15T03:52:14.927Z,5.71
2019-01-15T03:52:41.059Z,5.66
2019-01-15T03:53:07.162Z,5.66
2019-01-15T03:53:33.262Z,5.73
2019-01-15T03:53:59.365Z,5.66
2019-01-15T03:54:25.507Z,5.66
2019-01-15T03:54:51.620Z,5.65
2019-01-15T03:55:17.756Z,5.68
2019-01-15T03:55:43.854Z,5.68
2019-01-15T03:56:09.994Z,5.54
2019-01-15T03:56:36.097Z,5.76
2019-01-15T03:57:02.233Z,5.62
2019-01-15T03:57:28.371Z,5.65
2019-01-15T03:57:54.476Z,5.66
2019-01-15T03:58:20.577Z,5.68
2019-01-15T03:58:46.689Z,5.65
2019-01-15T03:59:12.821Z,5.68
2019-01-15T03:59:38.952Z,5.64
2019-01-15T04:00:05.109Z,5.66
2019-01-15T04:00:31.218Z,5.71
2019-01-15T04:00:57.322Z,5.66
2019-01-15T04:01:23.433Z,5.68
2019-01-15T04:01:49.593Z,5.66
2019-01-15T04:02:15.700Z,5.69
2019-01-15T04:02:41.833Z,5.68
2019-01-15T04:03:07.965Z,5.66
2019-01-15T04:03:34.068Z,5.73
2019-01-15T04:04:00.176Z,5.69
2019-01-15T04:04:26.341Z,5.65
2019-01-15T04:04:52.482Z,5.73
2019-01-15T04:05:18.646Z,5.66
2019-01-15T04:05:44.781Z,5.66
2019-01-15T04:06:10.887Z,5.65
2019-01-15T04:06:37.005Z,5.69
2019-01-15T04:07:03.104Z,5.68
2019-01-15T04:07:29.209Z,5.66
2019-01-15T04:07:55.321Z,5.66
2019-01-15T04:08:21.449Z,5.69
2019-01-15T04:08:47.554Z,5.68
2019-01-15T04:09:13.671Z,5.75
2019-01-15T04:09:39.771Z,5.66
2019-01-15T04:10:05.900Z,5.65
2019-01-15T04:10:32.006Z,5.62
2019-01-15T04:10:58.112Z,5.68
2019-01-15T04:11:24.221Z,5.64
2019-01-15T04:11:50.323Z,5.65
2019-01-15T04:12:16.426Z,5.62
2019-01-15T04:12:42.530Z,5.66
2019-01-15T04:13:11.307Z,5.66
2019-01-15T04:13:37.660Z,5.65
2019-01-15T04:14:03.827Z,5.69
2019-01-15T04:14:29.930Z,5.69
2019-01-15T04:14:56.033Z,5.72
2019-01-15T04:15:22.141Z,5.65
2019-01-15T04:15:48.242Z,5.69
2019-01-15T04:16:14.377Z,5.68
2019-01-15T04:16:40.483Z,5.56
2019-01-15T04:17:06.615Z,5.73
2019-01-15T04:17:32.712Z,5.62
2019-01-15T04:17:58.817Z,5.62
2019-01-15T04:18:24.921Z,5.69
2019-01-15T04:18:51.035Z,5.64
2019-01-15T04:19:17.141Z,5.62
2019-01-15T04:19:43.269Z,5.61
2019-01-15T04:20:09.370Z,5.61
2019-01-15T04:20:35.510Z,5.71
2019-01-15T04:21:01.621Z,5.69
2019-01-15T04:21:27.750Z,5.65
2019-01-15T04:21:53.884Z,5.65
2019-01-15T04:22:20.017Z,5.68
2019-01-15T04:22:46.177Z,5.71
2019-01-15T04:23:12.279Z,5.64
2019-01-15T04:23:38.383Z,5.66
2019-01-15T04:24:04.495Z,5.72
2019-01-15T04:24:30.604Z,5.64
2019-01-15T04:24:56.738Z,5.71
2019-01-15T04:25:22.841Z,5.69
2019-01-15T04:25:48.967Z,5.65
2019-01-15T04:26:15.130Z,5.65
2019-01-15T04:26:41.241Z,5.71
2019-01-15T04:27:07.363Z,5.71
2019-01-15T04:27:33.463Z,5.68
2019-01-15T04:27:59.575Z,5.66
2019-01-15T04:28:25.679Z,5.75
2019-01-15T04:28:51.784Z,5.68
2019-01-15T04:29:17.916Z,5.62
2019-01-15T04:29:44.050Z,5.68
2019-01-15T04:30:10.158Z,5.68
2019-01-15T04:30:36.284Z,5.69
2019-01-15T04:31:02.396Z,5.65
2019-01-15T04:31:28.503Z,5.65
2019-01-15T04:31:54.635Z,5.66
2019-01-15T04:32:20.735Z,5.71
2019-01-15T04:32:46.839Z,5.59
2019-01-15T04:33:12.976Z,5.62
2019-01-15T04:33:39.072Z,5.68
2019-01-15T04:34:05.180Z,5.72
2019-01-15T04:34:31.326Z,5.66
2019-01-15T04:34:57.412Z,5.62
2019-01-15T04:35:23.519Z,5.69
2019-01-15T04:35:49.630Z,5.61
2019-01-15T04:36:15.758Z,5.69
2019-01-15T04:36:41.897Z,5.68
2019-01-15T04:37:08.001Z,5.65
2019-01-15T04:37:34.111Z,5.69
2019-01-15T04:38:00.201Z,5.68
2019-01-15T04:38:26.307Z,5.65
2019-01-15T04:38:52.413Z,5.66
2019-01-15T04:39:18.551Z,5.62
2019-01-15T04:39:44.675Z,5.76
2019-01-15T04:40:10.808Z,5.65
2019-01-15T04:40:36.915Z,5.73
2019-01-15T04:41:03.133Z,5.76
2019-01-15T04:41:29.216Z,5.69
2019-01-15T04:41:55.319Z,5.71
2019-01-15T04:42:21.431Z,5.79
2019-01-15T04:42:47.540Z,5.79
2019-01-15T04:43:19.582Z,5.65
2019-01-15T04:43:41.033Z,5.75
2019-01-15T04:44:07.136Z,5.73
2019-01-15T04:44:33.238Z,5.79
2019-01-15T04:44:59.334Z,5.72
2019-01-15T04:45:25.443Z,5.72
2019-01-15T04:45:51.549Z,5.75
2019-01-15T04:46:17.672Z,5.75
2019-01-15T04:46:43.806Z,5.75
2019-01-15T04:47:09.909Z,5.83
2019-01-15T04:47:36.043Z,5.72
2019-01-15T04:48:02.192Z,5.75
2019-01-15T04:48:28.295Z,5.69
2019-01-15T04:48:54.400Z,5.69
2019-01-15T04:49:20.506Z,5.69
2019-01-15T04:49:46.613Z,5.69
2019-01-15T04:50:12.773Z,5.76
2019-01-15T04:50:38.910Z,5.66
2019-01-15T04:51:05.010Z,5.73
2019-01-15T04:51:31.144Z,5.73
2019-01-15T04:51:57.257Z,5.64
2019-01-15T04:52:23.385Z,5.68
2019-01-15T04:52:49.488Z,5.65
2019-01-15T04:53:15.594Z,5.71
2019-01-15T04:53:41.729Z,5.71
2019-01-15T04:54:07.832Z,5.76
2019-01-15T04:54:33.944Z,5.71
2019-01-15T04:55:00.046Z,5.73
2019-01-15T04:55:26.155Z,5.68
2019-01-15T04:55:52.269Z,5.76
2019-01-15T04:56:18.398Z,5.69
2019-01-15T04:56:44.500Z,5.79
2019-01-15T04:57:10.605Z,5.75
2019-01-15T04:57:36.720Z,5.82
2019-01-15T04:58:02.854Z,5.8
2019-01-15T04:58:28.959Z,5.8
2019-01-15T04:58:56.060Z,5.79
2019-01-15T04:59:22.162Z,5.71
2019-01-15T04:59:48.321Z,5.79
2019-01-15T05:00:14.425Z,5.8
2019-01-15T05:00:40.560Z,5.69
2019-01-15T05:01:06.663Z,5.72
2019-01-15T05:01:32.775Z,5.69
2019-01-15T05:01:58.878Z,5.83
2019-01-15T05:02:24.987Z,5.73
2019-01-15T05:02:51.096Z,5.72
2019-01-15T05:03:17.199Z,5.75
2019-01-15T05:03:43.296Z,5.76
2019-01-15T05:04:10.427Z,5.69
2019-01-15T05:04:36.534Z,5.76
2019-01-15T05:05:02.637Z,5.76
2019-01-15T05:05:28.767Z,5.73
2019-01-15T05:05:54.867Z,5.84
2019-01-15T05:06:21.003Z,5.84
2019-01-15T05:06:47.111Z,5.87
2019-01-15T05:07:13.209Z,5.86
2019-01-15T05:07:39.343Z,5.87
2019-01-15T05:08:05.506Z,5.76
2019-01-15T05:08:31.643Z,5.76
2019-01-15T05:08:57.750Z,5.75
2019-01-15T05:09:24.176Z,5.79
2019-01-15T05:09:50.281Z,5.75
2019-01-15T05:10:16.412Z,5.79
2019-01-15T05:10:42.551Z,5.73
2019-01-15T05:11:08.654Z,5.82
2019-01-15T05:11:34.761Z,5.73
2019-01-15T05:12:00.888Z,5.75
2019-01-15T05:12:26.989Z,5.75
2019-01-15T05:12:53.120Z,5.79
2019-01-15T05:13:19.223Z,5.83
2019-01-15T05:13:46.322Z,5.87
2019-01-15T05:14:12.452Z,5.87
2019-01-15T05:14:38.556Z,5.8
2019-01-15T05:15:04.664Z,5.86
2019-01-15T05:15:30.767Z,5.87
2019-01-15T05:15:56.875Z,5.75
2019-01-15T05:16:22.978Z,5.75
2019-01-15T05:16:49.078Z,5.75
2019-01-15T05:17:15.181Z,5.79
2019-01-15T05:17:41.289Z,5.87
2019-01-15T05:18:07.392Z,5.89
2019-01-15T05:18:33.494Z,5.75
2019-01-15T05:18:59.627Z,5.86
2019-01-15T05:19:25.763Z,5.83
2019-01-15T05:19:51.929Z,5.97
2019-01-15T05:20:18.052Z,5.9
2019-01-15T05:20:44.190Z,5.89
2019-01-15T05:21:10.292Z,5.9
2019-01-15T05:21:36.429Z,5.91
2019-01-15T05:22:02.544Z,5.91
2019-01-15T05:22:28.673Z,5.9
2019-01-15T05:22:54.783Z,5.91
2019-01-15T05:23:20.878Z,5.91
2019-01-15T05:23:47.017Z,5.9
2019-01-15T05:24:13.119Z,5.9
2019-01-15T05:24:39.254Z,5.89
2019-01-15T05:25:05.413Z,5.89
2019-01-15T05:25:31.518Z,5.9
2019-01-15T05:25:57.627Z,5.93
2019-01-15T05:26:23.731Z,5.97
2019-01-15T05:26:49.836Z,5.87
2019-01-15T05:27:15.943Z,5.97
2019-01-15T05:27:42.050Z,5.99
2019-01-15T05:28:08.170Z,5.93
2019-01-15T05:28:34.281Z,6.02
2019-01-15T05:29:00.404Z,5.99
2019-01-15T05:29:26.515Z,6.02
2019-01-15T05:29:52.617Z,6.02
2019-01-15T05:30:18.779Z,6.04
2019-01-15T05:30:44.889Z,5.98
2019-01-15T05:31:11.029Z,5.98
2019-01-15T05:31:37.129Z,6.01
2019-01-15T05:32:03.268Z,6.02
2019-01-15T05:32:29.379Z,5.99
2019-01-15T05:32:55.505Z,5.99
2019-01-15T05:33:21.612Z,5.93
2019-01-15T05:33:47.712Z,5.94
2019-01-15T05:34:13.817Z,5.99
2019-01-15T05:34:39.973Z,5.94
2019-01-15T05:35:06.132Z,5.91
2019-01-15T05:35:32.238Z,5.94
2019-01-15T05:35:58.413Z,5.94
2019-01-15T05:36:24.540Z,5.93
2019-01-15T05:36:50.640Z,5.93
2019-01-15T05:37:16.753Z,5.89
2019-01-15T05:37:42.881Z,5.83
2019-01-15T05:38:09.040Z,5.86
2019-01-15T05:38:35.180Z,5.94
2019-01-15T05:39:01.292Z,5.98
2019-01-15T05:39:27.394Z,5.98
2019-01-15T05:39:53.497Z,5.93
2019-01-15T05:40:19.631Z,5.9
2019-01-15T05:40:45.726Z,5.9
2019-01-15T05:41:11.840Z,5.94
2019-01-15T05:41:37.991Z,5.91
2019-01-15T05:42:04.127Z,5.91
2019-01-15T05:42:30.226Z,5.89
2019-01-15T05:42:56.360Z,5.91
2019-01-15T05:43:22.457Z,5.83
2019-01-15T05:43:50.541Z,5.98
2019-01-15T05:44:16.655Z,5.93
2019-01-15T05:44:42.759Z,5.86
2019-01-15T05:45:08.864Z,5.83
2019-01-15T05:45:34.966Z,5.84
2019-01-15T05:46:01.073Z,5.86
2019-01-15T05:46:27.209Z,5.82
2019-01-15T05:46:53.345Z,5.8
2019-01-15T05:47:19.451Z,5.84
2019-01-15T05:47:45.558Z,5.82
2019-01-15T05:48:11.686Z,5.86
2019-01-15T05:48:37.800Z,5.84